Church Street, Georgia
Current Conditions -  °F | °C
As of 1:52 AM on Sunday 21 Dec 2014 (Local Time) from KATL Reporting Station
Haze Haze  
Wind Chill: 45°   Ceiling: 800
Heat Index: 48°   Visibility: 5mi
Dew Point: 44°   Wind: 6mph
Humidity: 86%   Direction: 90°E
Pressure: 30.19"   Gusts: NA
Location:  33.559°N, 84.4436°W
Report Text: KATL 210652Z 09005KT 5SM BR BKN008 OVC016 09/07 A3019 RMK AO2 SLP224 T00890067
Loading
Personal Weather Stations






























Interactive Weather Map New forecast layout! Learn more

10-Day Weather Forecast

Advertisements
Track Severe Weather on mobile